Gilead, NE

3:37 PM CDT on July 23, 2016 (GMT -0500)
Hebron Municipal

Weather History for KHJH - December, 2012

Change the Weather History Date:

Wednesday, December 12, 2012

  Actual Average Record
Temperature  
Mean Temperature 40 °F -  
Max Temperature 54 °F 37 °F 64 °F (1990)
Min Temperature 27 °F 18 °F -6 °F (1958)
Degree Days  
Heating Degree Days 24    
Moisture  
Dew Point 16 °F    
Average Humidity 42    
Maximum Humidity 62    
Minimum Humidity 21    
Precipitation  
Precipitation 0.00 in - - ()
Sea Level Pressure  
Sea Level Pressure 29.96 in    
Wind  
Wind Speed 12 mph (SSW)    
Max Wind Speed 23 mph    
Max Gust Speed 31 mph    
Visibility 10 miles    
Events      
Averages and records for this station are not official NWS values.
T = Trace of Precipitation, MM = Missing Value Source: NWS Daily Summary

Daily Weather History Graph

Daily Weather History Graph

Search for Another Location

Airport or City:

Trip Planner

Search our weather history database for the weather conditions in past years. The results will help you decide how hot, cold, wet, or windy it might be!

Date:

Astronomy

Dec. 12, 2012 Rise Set
Actual Time 7:43 AM CST 5:04 PM CST
Civil Twilight 7:13 AM CST 5:35 PM CST
Nautical Twilight 6:39 AM CST 6:09 PM CST
Astronomical Twilight 6:06 AM CST 6:42 PM CST
Moon 6:49 AM CST (12/12) 4:43 PM CST (12/12)
Length of Visible Light 10h 22m
Length of Day
9h 21m
Waning Crescent, 1% of the Moon is Illuminated
Dec 12
Waning Crescent
Dec 13
New
Dec 19
First Quarter
Dec 28
Full
Jan 4
Last Quarter

Hourly Weather History & Observations

Time (CST) Temp. Windchill Dew Point Humidity Pressure Visibility Wind Dir Wind Speed Gust Speed Precip Events Conditions
12:15 AM 32.0 °F 23.0 °F 17.2 °F 55% 29.99 in 10.0 mi South 11.5 mph 18.4 mph N/A   Clear
12:35 AM 32.0 °F 22.5 °F 17.2 °F 55% 29.99 in 10.0 mi South 12.7 mph - N/A   Clear
12:55 AM 31.6 °F 23.1 °F 17.1 °F 55% 29.99 in 10.0 mi SSW 10.4 mph - N/A   Clear
1:15 AM 31.5 °F 22.3 °F 16.9 °F 55% 29.98 in 10.0 mi SSW 11.5 mph 17.3 mph N/A   Clear
1:35 AM 31.1 °F 22.4 °F 16.7 °F 55% 29.98 in 10.0 mi SSW 10.4 mph - N/A   Clear
1:55 AM 30.7 °F 21.4 °F 16.7 °F 56% 29.98 in 10.0 mi SSW 11.5 mph 18.4 mph N/A   Clear
2:15 AM 30.6 °F 21.8 °F 16.7 °F 56% 29.99 in 10.0 mi SSW 10.4 mph 16.1 mph N/A   Clear
2:35 AM 30.0 °F 21.7 °F 16.5 °F 57% 29.99 in 10.0 mi SSW 9.2 mph 16.1 mph N/A   Clear
2:55 AM 29.7 °F 22.0 °F 16.3 °F 58% 29.99 in 10.0 mi SSW 8.1 mph - N/A   Clear
3:15 AM 29.1 °F 21.3 °F 15.8 °F 58% 29.99 in 10.0 mi SSW 8.1 mph - N/A   Clear
3:35 AM 28.4 °F 19.1 °F 15.8 °F 59% 29.98 in 10.0 mi South 10.4 mph - N/A   Clear
3:55 AM 27.7 °F 18.2 °F 16.2 °F 62% 29.97 in 10.0 mi South 10.4 mph - N/A   Clear
4:15 AM 27.7 °F 18.8 °F 16.0 °F 62% 29.96 in 10.0 mi South 9.2 mph - N/A   Clear
4:35 AM 29.7 °F 20.7 °F 16.0 °F 57% 29.96 in 10.0 mi South 10.4 mph 17.3 mph N/A   Clear
4:55 AM 31.1 °F 21.4 °F 15.6 °F 53% 29.95 in 10.0 mi South 12.7 mph - N/A   Clear
5:15 AM 30.9 °F 21.7 °F 15.3 °F 52% 29.95 in 10.0 mi South 11.5 mph 16.1 mph N/A   Clear
5:35 AM 30.6 °F 21.2 °F 15.4 °F 54% 29.95 in 10.0 mi South 11.5 mph 17.3 mph N/A   Clear
5:55 AM 30.6 °F 21.8 °F 15.4 °F 54% 29.97 in 10.0 mi SSW 10.4 mph 17.3 mph N/A   Clear
6:15 AM 30.9 °F 21.2 °F 15.4 °F 53% 29.97 in 10.0 mi SSW 12.7 mph 18.4 mph N/A   Clear
6:35 AM 30.2 °F 21.9 °F 15.4 °F 54% 29.98 in 10.0 mi SSW 9.2 mph - N/A   Clear
6:55 AM 29.7 °F 20.7 °F 15.4 °F 55% 29.98 in 10.0 mi SSW 10.4 mph 17.3 mph N/A   Clear
7:15 AM 29.1 °F 19.4 °F 15.4 °F 57% 29.98 in 10.0 mi South 11.5 mph 16.1 mph N/A   Clear
7:35 AM 28.4 °F 19.1 °F 15.4 °F 58% 29.99 in 10.0 mi South 10.4 mph - N/A   Clear
7:55 AM 28.2 °F 19.5 °F 15.6 °F 59% 29.99 in 10.0 mi SSW 9.2 mph - N/A   Clear
8:15 AM 29.3 °F 19.6 °F 15.6 °F 57% 29.99 in 10.0 mi SSW 11.5 mph 17.3 mph N/A   Clear
8:35 AM 30.4 °F 22.9 °F 16.0 °F 55% 29.99 in 10.0 mi SSW 8.1 mph - N/A   Clear
8:55 AM 32.4 °F 23.5 °F 16.5 °F 52% 30.00 in 10.0 mi SSW 11.5 mph 17.3 mph N/A   Clear
9:15 AM 34.2 °F 25.7 °F 16.5 °F 49% 30.00 in 10.0 mi SSW 11.5 mph 18.4 mph N/A   Clear
9:35 AM 36.0 °F 27.1 °F 16.9 °F 46% 30.00 in 10.0 mi SSW 13.8 mph 19.6 mph N/A   Clear
9:55 AM 37.8 °F 29.4 °F 17.1 °F 43% 30.01 in 10.0 mi SSW 13.8 mph 23.0 mph N/A   Clear
10:15 AM 39.2 °F 31.2 °F 17.2 °F 41% 30.01 in 10.0 mi SSW 13.8 mph 21.9 mph N/A   Clear
10:35 AM 40.1 °F 32.7 °F 17.4 °F 40% 30.01 in 10.0 mi SSW 12.7 mph 26.5 mph N/A   Clear
10:55 AM 43.0 °F 35.1 °F 17.4 °F 36% 30.00 in 10.0 mi SSW 17.3 mph 21.9 mph N/A   Clear
11:15 AM 44.2 °F 37.0 °F 16.7 °F 33% 30.00 in 10.0 mi SSW 16.1 mph 26.5 mph N/A   Clear
11:35 AM 45.5 °F 38.6 °F 16.7 °F 32% 30.00 in 10.0 mi SSW 16.1 mph 21.9 mph N/A   Clear
11:55 AM 46.8 °F - 16.7 °F 30% 30.00 in 10.0 mi SSW 16.1 mph 25.3 mph N/A   Clear
12:15 PM 48.2 °F - 16.5 °F 28% 29.99 in 10.0 mi SSW 17.3 mph 26.5 mph N/A   Clear
12:35 PM 48.7 °F - 16.7 °F 28% 29.98 in 10.0 mi SW 16.1 mph 25.3 mph N/A   Clear
12:55 PM 50.4 °F - 16.7 °F 26% 29.97 in 10.0 mi SSW 19.6 mph 24.2 mph N/A   Clear
1:15 PM 51.8 °F - 16.3 °F 25% 29.96 in 10.0 mi SSW 16.1 mph 24.2 mph N/A   Clear
1:55 PM 53.2 °F - 15.6 °F 23% 29.94 in 10.0 mi SSW 17.3 mph 28.8 mph N/A   Clear
2:15 PM 53.8 °F - 15.1 °F 22% 29.93 in 10.0 mi SSW 19.6 mph 29.9 mph N/A   Clear
2:35 PM 54.5 °F - 15.4 °F 21% 29.91 in 10.0 mi South 23.0 mph 29.9 mph N/A   Clear
2:55 PM 54.3 °F - 15.4 °F 22% 29.90 in 10.0 mi South 21.9 mph 31.1 mph N/A   Clear
3:15 PM 54.1 °F - 15.3 °F 22% 29.90 in 10.0 mi South 21.9 mph 29.9 mph N/A   Clear
3:35 PM 54.1 °F - 15.3 °F 22% 29.91 in 10.0 mi South 23.0 mph 28.8 mph N/A   Clear
3:55 PM 53.6 °F - 15.4 °F 22% 29.92 in 10.0 mi SSW 19.6 mph 25.3 mph N/A   Clear
4:15 PM 52.7 °F - 15.1 °F 23% 29.93 in 10.0 mi SSW 17.3 mph 25.3 mph N/A   Clear
4:35 PM 51.4 °F - 15.1 °F 24% 29.92 in 10.0 mi SSW 18.4 mph 28.8 mph N/A   Clear
4:55 PM 49.3 °F - 15.8 °F 26% 29.93 in 10.0 mi South 15.0 mph - N/A   Clear
5:15 PM 47.5 °F - 15.8 °F 28% 29.92 in 10.0 mi South 12.7 mph 17.3 mph N/A   Clear
5:35 PM 46.6 °F - 15.8 °F 29% 29.91 in 10.0 mi South 12.7 mph - N/A   Clear
5:55 PM 46.4 °F 40.4 °F 15.8 °F 29% 29.92 in 10.0 mi South 13.8 mph 19.6 mph N/A   Clear
6:15 PM 45.7 °F 40.6 °F 15.8 °F 30% 29.93 in 10.0 mi South 10.4 mph 20.7 mph N/A   Clear
6:35 PM 44.8 °F 38.7 °F 15.8 °F 31% 29.93 in 10.0 mi South 12.7 mph - N/A   Clear
6:55 PM 44.6 °F 38.8 °F 15.6 °F 31% 29.93 in 10.0 mi South 11.5 mph 19.6 mph N/A   Clear
7:15 PM 43.9 °F 37.2 °F 15.6 °F 32% 29.94 in 10.0 mi South 13.8 mph 20.7 mph N/A   Clear
7:35 PM 43.7 °F 37.7 °F 15.4 °F 32% 29.94 in 10.0 mi South 11.5 mph - N/A   Clear
7:55 PM 43.0 °F 35.7 °F 15.8 °F 33% 29.94 in 10.0 mi South 15.0 mph 20.7 mph N/A   Clear
8:15 PM 42.6 °F 35.9 °F 15.8 °F 34% 29.95 in 10.0 mi South 12.7 mph - N/A   Clear
8:35 PM 42.3 °F 35.5 °F 16.2 °F 35% 29.95 in 10.0 mi South 12.7 mph 18.4 mph N/A   Clear
8:55 PM 42.1 °F 34.9 °F 16.5 °F 36% 29.95 in 10.0 mi South 13.8 mph 18.4 mph N/A   Clear
9:15 PM 41.5 °F 35.0 °F 16.7 °F 37% 29.95 in 10.0 mi South 11.5 mph 18.4 mph N/A   Clear
9:35 PM 41.0 °F 33.1 °F 17.1 °F 38% 29.96 in 10.0 mi South 15.0 mph - N/A   Clear
9:55 PM 41.0 °F 33.5 °F 17.2 °F 38% 29.95 in 10.0 mi South 13.8 mph - N/A   Clear
10:15 PM 40.3 °F 32.6 °F 17.4 °F 40% 29.95 in 10.0 mi South 13.8 mph 20.7 mph N/A   Clear
10:35 PM 38.5 °F 30.7 °F 17.6 °F 43% 29.95 in 10.0 mi South 12.7 mph - N/A   Clear
10:55 PM 37.8 °F 29.8 °F 17.6 °F 44% 29.95 in 10.0 mi South 12.7 mph - N/A   Clear
11:15 PM 36.9 °F 29.6 °F 17.6 °F 46% 29.95 in 10.0 mi South 10.4 mph - N/A   Clear
11:35 PM 37.0 °F 31.0 °F 17.6 °F 45% 29.96 in 10.0 mi South 8.1 mph - N/A   Clear
11:55 PM 36.5 °F 33.9 °F 18.0 °F 47% 29.97 in 10.0 mi South 3.5 mph - N/A   Clear